createdAt,value
2022-11-24T00:00:43.645Z,94252.13
2022-11-24T00:03:10.180Z,94252.47
2022-11-24T00:05:36.757Z,94252.81
2022-11-24T00:08:03.171Z,94259.22
2022-11-24T00:10:29.598Z,94258.22
2022-11-24T00:12:55.988Z,94253.97
2022-11-24T00:15:22.410Z,94251.00
2022-11-24T00:17:48.837Z,94243.09
2022-11-24T00:20:15.359Z,94253.91
2022-11-24T00:22:41.784Z,94249.78
2022-11-24T00:25:08.207Z,94255.22
2022-11-24T00:27:34.631Z,94255.22
2022-11-24T00:30:01.061Z,94266.03
2022-11-24T00:32:27.474Z,94258.09
2022-11-24T00:34:53.891Z,94262.53
2022-11-24T00:37:20.326Z,94267.16
2022-11-24T00:39:46.739Z,94262.03
2022-11-24T00:42:13.155Z,94263.22
2022-11-24T00:44:39.657Z,94262.88
2022-11-24T00:47:06.198Z,94267.97
2022-11-24T00:49:32.682Z,94273.22
2022-11-24T00:51:59.079Z,94264.38
2022-11-24T00:54:25.499Z,94262.41
2022-11-24T00:56:51.915Z,94276.00
2022-11-24T00:59:18.361Z,94281.44
2022-11-24T01:01:44.880Z,94282.22
2022-11-24T01:04:11.374Z,94281.41
2022-11-24T01:06:37.780Z,94293.19
2022-11-24T01:09:04.205Z,94287.63
2022-11-24T01:11:30.636Z,94288.59
2022-11-24T01:13:57.087Z,94292.53
2022-11-24T01:16:23.573Z,94285.63
2022-11-24T01:18:50.075Z,94287.44
2022-11-24T01:21:16.488Z,94294.81
2022-11-24T01:23:42.895Z,94289.41
2022-11-24T01:26:09.315Z,94296.41
2022-11-24T01:28:35.741Z,94296.25
2022-11-24T01:31:02.220Z,94307.38
2022-11-24T01:33:28.695Z,94304.06
2022-11-24T01:35:55.108Z,94307.31
2022-11-24T01:38:21.533Z,94312.06
2022-11-24T01:40:47.985Z,94315.53
2022-11-24T01:43:14.374Z,94315.19
2022-11-24T01:45:40.990Z,94307.66
2022-11-24T01:48:07.690Z,94305.34
2022-11-24T01:50:34.270Z,94303.22
2022-11-24T01:53:00.693Z,94303.91
2022-11-24T01:55:27.100Z,94310.41
2022-11-24T01:57:53.522Z,94310.75
2022-11-24T02:00:19.930Z,94317.56
2022-11-24T02:02:46.420Z,94319.53
2022-11-24T02:05:12.885Z,94321.50
2022-11-24T02:07:39.327Z,94326.56
2022-11-24T02:10:05.780Z,94327.38
2022-11-24T02:12:32.187Z,94329.03
2022-11-24T02:14:58.633Z,94332.56
2022-11-24T02:17:25.049Z,94343.69
2022-11-24T02:19:51.460Z,94327.97
2022-11-24T02:22:17.878Z,94329.13
2022-11-24T02:24:44.302Z,94329.00
2022-11-24T02:27:10.746Z,94325.25
2022-11-24T02:29:37.170Z,94338.50
2022-11-24T02:32:03.565Z,94330.03
2022-11-24T02:34:29.972Z,94328.31
2022-11-24T02:36:56.645Z,94318.00
2022-11-24T02:39:23.103Z,94325.34
2022-11-24T02:47:12.444Z,94333.53
2022-11-24T02:49:38.852Z,94333.47
2022-11-24T02:52:05.247Z,94337.38
2022-11-24T02:54:31.934Z,94333.78
2022-11-24T02:56:58.696Z,94334.91
2022-11-24T02:59:25.091Z,94325.22
2022-11-24T03:01:51.516Z,94326.41
2022-11-24T03:04:17.976Z,94324.41
2022-11-24T03:06:44.371Z,94318.53
2022-11-24T03:09:10.918Z,94325.84
2022-11-24T03:11:37.315Z,94326.69
2022-11-24T03:14:03.712Z,94326.81
2022-11-24T03:16:30.156Z,94324.66
2022-11-24T03:18:56.590Z,94329.91
2022-11-24T03:21:23.035Z,94332.38
2022-11-24T03:23:49.456Z,94340.94
2022-11-24T03:26:15.888Z,94336.91
2022-11-24T03:28:42.326Z,94338.00
2022-11-24T03:31:08.784Z,94331.09
2022-11-24T03:33:35.257Z,94331.78
2022-11-24T03:36:01.755Z,94345.09
2022-11-24T03:38:28.159Z,94348.03
2022-11-24T03:40:54.549Z,94357.69
2022-11-24T03:43:20.978Z,94358.50
2022-11-24T03:45:47.400Z,94354.63
2022-11-24T03:48:13.797Z,94355.28
2022-11-24T03:50:40.239Z,94349.88
2022-11-24T03:53:06.662Z,94354.66
2022-11-24T03:55:33.082Z,94358.78
2022-11-24T03:57:59.480Z,94362.06
2022-11-24T04:00:25.875Z,94365.44
2022-11-24T04:02:52.325Z,94361.50
2022-11-24T04:05:18.788Z,94352.97
2022-11-24T04:07:45.409Z,94362.81
2022-11-24T04:10:11.843Z,94364.59
2022-11-24T04:12:38.244Z,94357.38
2022-11-24T04:15:04.641Z,94367.78
2022-11-24T04:17:31.058Z,94365.47
2022-11-24T04:19:57.484Z,94374.66
2022-11-24T04:22:23.914Z,94387.16
2022-11-24T04:24:50.338Z,94385.91
2022-11-24T04:27:16.745Z,94394.28
2022-11-24T04:29:43.199Z,94390.97
2022-11-24T04:32:09.615Z,94384.09
2022-11-24T04:34:36.280Z,94396.41
2022-11-24T04:37:02.795Z,94397.22
2022-11-24T04:39:29.199Z,94400.66
2022-11-24T04:41:55.780Z,94398.84
2022-11-24T04:44:22.195Z,94396.22
2022-11-24T04:46:48.676Z,94402.84
2022-11-24T04:49:15.152Z,94414.34
2022-11-24T04:51:41.603Z,94408.78
2022-11-24T04:54:08.014Z,94409.44
2022-11-24T04:56:34.425Z,94405.00
2022-11-24T04:59:05.221Z,94402.56
2022-11-24T05:01:34.624Z,94404.38
2022-11-24T05:04:01.206Z,94403.47
2022-11-24T05:06:27.677Z,94406.06
2022-11-24T05:08:54.112Z,94413.94
2022-11-24T05:11:20.530Z,94416.66
2022-11-24T05:13:46.922Z,94421.09
2022-11-24T05:16:13.377Z,94418.09
2022-11-24T05:18:39.835Z,94417.94
2022-11-24T05:21:06.291Z,94414.50
2022-11-24T05:23:32.696Z,94410.06
2022-11-24T05:25:59.127Z,94420.78
2022-11-24T05:28:25.522Z,94420.94
2022-11-24T05:30:51.969Z,94408.63
2022-11-24T05:33:18.361Z,94419.63
2022-11-24T05:35:44.799Z,94412.66
2022-11-24T05:38:11.325Z,94418.22
2022-11-24T05:40:37.717Z,94428.91
2022-11-24T05:43:04.111Z,94423.66
2022-11-24T05:45:30.570Z,94438.97
2022-11-24T05:47:57.022Z,94435.53
2022-11-24T05:50:23.461Z,94441.78
2022-11-24T05:52:49.909Z,94438.19
2022-11-24T05:55:16.313Z,94425.72
2022-11-24T05:57:42.757Z,94439.97
2022-11-24T06:00:09.176Z,94447.84
2022-11-24T06:02:35.732Z,94441.47
2022-11-24T06:05:02.208Z,94435.06
2022-11-24T06:07:28.692Z,94416.69
2022-11-24T06:09:55.160Z,94413.09
2022-11-24T06:12:21.732Z,94417.22
2022-11-24T06:14:48.142Z,94424.94
2022-11-24T06:17:14.636Z,94426.44
2022-11-24T06:19:42.293Z,94427.41
2022-11-24T06:22:08.839Z,94423.31
2022-11-24T06:24:35.525Z,94431.53
2022-11-24T06:27:02.171Z,94431.34
2022-11-24T06:29:28.656Z,94427.31
2022-11-24T06:31:55.183Z,94433.56
2022-11-24T06:34:21.687Z,94425.19
2022-11-24T06:36:48.120Z,94431.56
2022-11-24T06:39:14.546Z,94421.88
2022-11-24T06:41:40.989Z,94422.69
2022-11-24T06:44:07.404Z,94428.63
2022-11-24T06:46:33.821Z,94417.78
2022-11-24T06:49:00.532Z,94421.44
2022-11-24T06:51:26.975Z,94434.09
2022-11-24T06:53:53.445Z,94444.59
2022-11-24T06:56:19.895Z,94443.09
2022-11-24T06:58:46.315Z,94437.69
2022-11-24T07:01:12.774Z,94439.50
2022-11-24T07:03:39.278Z,94459.69
2022-11-24T07:06:05.683Z,94434.09
2022-11-24T07:08:32.128Z,94436.09
2022-11-24T07:10:58.570Z,94445.13
2022-11-24T07:13:25.024Z,94439.91
2022-11-24T07:15:51.422Z,94454.19
2022-11-24T07:18:19.076Z,94459.44
2022-11-24T07:20:45.506Z,94460.91
2022-11-24T07:23:12.044Z,94466.69
2022-11-24T07:25:38.478Z,94469.97
2022-11-24T07:28:04.973Z,94461.47
2022-11-24T07:30:31.402Z,94471.50
2022-11-24T07:32:57.823Z,94476.91
2022-11-24T07:35:24.257Z,94476.41
2022-11-24T07:37:50.665Z,94471.81
2022-11-24T07:40:17.074Z,94467.91
2022-11-24T07:42:43.538Z,94466.63
2022-11-24T07:45:10.000Z,94464.97
2022-11-24T07:47:36.460Z,94470.28
2022-11-24T07:50:02.896Z,94476.50
2022-11-24T07:52:29.324Z,94469.97
2022-11-24T07:54:55.776Z,94474.59
2022-11-24T07:57:22.216Z,94471.13
2022-11-24T07:59:48.679Z,94470.19
2022-11-24T08:02:15.119Z,94469.66
2022-11-24T08:04:41.828Z,94471.66
2022-11-24T08:07:08.426Z,94478.72
2022-11-24T08:09:35.110Z,94482.03
2022-11-24T08:12:02.596Z,94486.31
2022-11-24T08:14:30.200Z,94485.13
2022-11-24T08:16:56.692Z,94488.28
2022-11-24T08:19:23.174Z,94488.44
2022-11-24T08:21:49.967Z,94497.69
2022-11-24T08:24:16.544Z,94502.44
2022-11-24T08:26:43.140Z,94504.09
2022-11-24T08:29:10.736Z,94512.97
2022-11-24T08:31:37.439Z,94515.59
2022-11-24T08:34:05.006Z,94510.84
2022-11-24T08:36:32.557Z,94519.25
2022-11-24T08:38:59.157Z,94520.06
2022-11-24T08:41:25.805Z,94517.06
2022-11-24T08:43:52.404Z,94527.16
2022-11-24T08:46:18.950Z,94528.13
2022-11-24T08:48:46.610Z,94533.72
2022-11-24T08:51:13.199Z,94531.31
2022-11-24T08:53:39.776Z,94549.72
2022-11-24T08:56:06.385Z,94548.44
2022-11-24T08:58:33.149Z,94554.84
2022-11-24T09:01:01.607Z,94559.38
2022-11-24T09:03:29.189Z,94566.75
2022-11-24T09:05:56.807Z,94563.47
2022-11-24T09:08:23.346Z,94551.97
2022-11-24T09:10:49.973Z,94552.00
2022-11-24T09:13:17.544Z,94548.06
2022-11-24T09:15:45.136Z,94552.53
2022-11-24T09:18:11.818Z,94557.00
2022-11-24T09:20:38.443Z,94554.34
2022-11-24T09:23:06.067Z,94555.19
2022-11-24T09:25:32.671Z,94551.38
2022-11-24T09:28:00.285Z,94562.75
2022-11-24T09:30:26.895Z,94563.72
2022-11-24T09:32:54.504Z,94562.56
2022-11-24T09:35:21.083Z,94567.81
2022-11-24T09:37:47.666Z,94577.53
2022-11-24T09:40:15.275Z,94586.59
2022-11-24T09:42:41.857Z,94578.22
2022-11-24T09:45:08.268Z,94580.00
2022-11-24T09:47:34.704Z,94579.88
2022-11-24T09:50:01.162Z,94581.50
2022-11-24T09:52:28.235Z,94583.63
2022-11-24T09:54:54.646Z,94589.25
2022-11-24T09:57:21.412Z,94591.38
2022-11-24T09:59:48.256Z,94593.03
2022-11-24T10:02:15.605Z,94593.56
2022-11-24T10:04:42.289Z,94593.03
2022-11-24T10:07:09.868Z,94588.94
2022-11-24T10:09:37.489Z,94582.00
2022-11-24T10:12:05.023Z,94583.47
2022-11-24T10:14:31.599Z,94584.16
2022-11-24T10:16:58.193Z,94589.28
2022-11-24T10:19:36.273Z,94594.19
2022-11-24T10:22:03.579Z,94588.75
2022-11-24T10:24:30.052Z,94587.94
2022-11-24T10:26:56.444Z,94591.72
2022-11-24T10:29:22.820Z,94593.38
2022-11-24T10:31:49.278Z,94587.78
2022-11-24T10:34:15.694Z,94583.63
2022-11-24T10:36:42.217Z,94595.97
2022-11-24T10:39:08.786Z,94594.16
2022-11-24T10:41:35.224Z,94590.56
2022-11-24T10:44:01.628Z,94592.53
2022-11-24T10:46:28.040Z,94595.34
2022-11-24T10:48:54.496Z,94602.59
2022-11-24T10:51:20.923Z,94606.25
2022-11-24T10:53:47.358Z,94599.97
2022-11-24T10:56:13.759Z,94599.31
2022-11-24T10:58:40.190Z,94590.91
2022-11-24T11:01:06.689Z,94595.34
2022-11-24T11:03:33.200Z,94597.16
2022-11-24T11:05:59.655Z,94612.63
2022-11-24T11:08:26.159Z,94606.38
2022-11-24T11:10:52.594Z,94604.72
2022-11-24T11:13:19.022Z,94600.59
2022-11-24T11:15:45.458Z,94602.91
2022-11-24T11:18:12.059Z,94604.19
2022-11-24T11:20:38.489Z,94601.06
2022-11-24T11:23:05.017Z,94606.50
2022-11-24T11:25:31.619Z,94607.47
2022-11-24T11:27:58.048Z,94610.41
2022-11-24T11:35:57.335Z,94612.84
2022-11-24T11:38:23.792Z,94617.13
2022-11-24T11:40:50.267Z,94616.78
2022-11-24T11:43:16.743Z,94620.25
2022-11-24T11:45:43.251Z,94622.56
2022-11-24T11:48:09.682Z,94610.16
2022-11-24T11:50:42.916Z,94620.41
2022-11-24T11:53:13.963Z,94618.91
2022-11-24T11:55:43.962Z,94621.53
2022-11-24T11:58:13.101Z,94620.03
2022-11-24T12:00:39.513Z,94610.94
2022-11-24T12:03:06.050Z,94607.78
2022-11-24T12:05:32.578Z,94603.28
2022-11-24T12:08:01.327Z,94604.59
2022-11-24T12:10:31.469Z,94607.25
2022-11-24T12:12:57.890Z,94602.78
2022-11-24T12:15:24.319Z,94604.44
2022-11-24T12:17:50.753Z,94611.22
2022-11-24T12:20:17.226Z,94611.84
2022-11-24T12:22:43.634Z,94605.56
2022-11-24T12:25:10.083Z,94608.88
2022-11-24T12:27:39.355Z,94605.41
2022-11-24T12:30:05.797Z,94605.56
2022-11-24T12:32:32.228Z,94598.63
2022-11-24T12:34:58.743Z,94597.81
2022-11-24T12:37:25.160Z,94598.63
2022-11-24T12:39:51.585Z,94595.50
2022-11-24T12:42:18.036Z,94595.13
2022-11-24T12:44:44.482Z,94593.97
2022-11-24T12:47:11.056Z,94594.59
2022-11-24T12:49:37.804Z,94591.97
2022-11-24T12:52:04.413Z,94597.25
2022-11-24T12:54:30.851Z,94591.44
2022-11-24T12:56:57.288Z,94582.53
2022-11-24T12:59:23.714Z,94584.53
2022-11-24T13:01:50.218Z,94587.34
2022-11-24T13:04:16.693Z,94585.22
2022-11-24T13:06:48.812Z,94579.59
2022-11-24T13:09:15.968Z,94579.44
2022-11-24T13:11:42.394Z,94570.06
2022-11-24T13:14:08.810Z,94571.59
2022-11-24T13:16:37.162Z,94565.19
2022-11-24T13:19:10.830Z,94566.00
2022-11-24T13:21:37.315Z,94562.59
2022-11-24T13:24:03.747Z,94567.91
2022-11-24T13:26:30.180Z,94560.22
2022-11-24T13:29:03.594Z,94551.63
2022-11-24T13:31:39.739Z,94549.50
2022-11-24T13:34:06.198Z,94551.47
2022-11-24T13:36:32.658Z,94544.38
2022-11-24T13:38:59.081Z,94543.41
2022-11-24T13:41:28.848Z,94546.72
2022-11-24T13:43:55.369Z,94541.91
2022-11-24T13:46:21.849Z,94539.72
2022-11-24T13:48:48.322Z,94535.94
2022-11-24T13:51:14.729Z,94537.59
2022-11-24T13:53:41.219Z,94530.94
2022-11-24T13:56:07.597Z,94531.63
2022-11-24T13:58:34.051Z,94521.19
2022-11-24T14:01:00.588Z,94524.13
2022-11-24T14:03:27.696Z,94518.66
2022-11-24T14:05:54.240Z,94518.66
2022-11-24T14:08:20.640Z,94520.13
2022-11-24T14:10:47.055Z,94514.03
2022-11-24T14:13:13.450Z,94508.91
2022-11-24T14:15:40.080Z,94511.91
2022-11-24T14:18:06.592Z,94520.16
2022-11-24T14:20:32.984Z,94519.66
2022-11-24T14:22:59.424Z,94519.03
2022-11-24T14:25:26.903Z,94507.72
2022-11-24T14:27:53.576Z,94507.31
2022-11-24T14:30:21.144Z,94500.13
2022-11-24T14:32:47.598Z,94500.88
2022-11-24T14:35:14.112Z,94505.53
2022-11-24T14:37:40.592Z,94501.41
2022-11-24T14:40:07.124Z,94502.63
2022-11-24T14:42:33.577Z,94486.38
2022-11-24T14:45:00.045Z,94487.38
2022-11-24T14:47:30.841Z,94475.50
2022-11-24T14:49:59.023Z,94466.59
2022-11-24T14:52:26.552Z,94467.28
2022-11-24T14:54:53.166Z,94461.38
2022-11-24T14:57:19.562Z,94464.91
2022-11-24T14:59:45.970Z,94463.94
2022-11-24T15:02:12.381Z,94451.59
2022-11-24T15:05:01.688Z,94449.50
2022-11-24T15:07:25.205Z,94442.75
2022-11-24T15:09:51.654Z,94451.13
2022-11-24T15:12:18.090Z,94454.75
2022-11-24T15:14:44.489Z,94448.66
2022-11-24T15:17:10.942Z,94447.97
2022-11-24T15:19:39.145Z,94451.47
2022-11-24T15:22:06.779Z,94465.91
2022-11-24T15:24:33.456Z,94460.00
2022-11-24T15:27:00.111Z,94466.41
2022-11-24T15:29:26.529Z,94462.13
2022-11-24T15:31:53.267Z,94469.56
2022-11-24T15:34:19.813Z,94474.50
2022-11-24T15:36:46.252Z,94474.97
2022-11-24T15:39:12.675Z,94485.81
2022-11-24T15:41:39.132Z,94491.56
2022-11-24T15:44:05.554Z,94498.75
2022-11-24T15:46:32.026Z,94490.53
2022-11-24T15:48:58.522Z,94475.22
2022-11-24T15:51:24.955Z,94481.16
2022-11-24T15:53:54.107Z,94473.28
2022-11-24T15:56:23.553Z,94474.59
2022-11-24T15:58:49.968Z,94483.75
2022-11-24T16:01:16.580Z,94492.00
2022-11-24T16:03:47.759Z,94504.44
2022-11-24T16:06:19.115Z,94493.41
2022-11-24T16:08:50.039Z,94493.59
2022-11-24T16:11:16.445Z,94495.06
2022-11-24T16:13:45.647Z,94497.50
2022-11-24T16:16:16.749Z,94492.03
2022-11-24T16:18:43.200Z,94494.97
2022-11-24T16:21:09.642Z,94500.41
2022-11-24T16:23:36.031Z,94499.44
2022-11-24T16:26:02.463Z,94502.63
2022-11-24T16:28:28.903Z,94500.84
2022-11-24T16:30:55.312Z,94490.31
2022-11-24T16:33:21.726Z,94500.47
2022-11-24T16:35:48.166Z,94504.78
2022-11-24T16:38:14.593Z,94500.41
2022-11-24T16:40:41.025Z,94497.72
2022-11-24T16:43:07.434Z,94511.47
2022-11-24T16:45:33.912Z,94507.03
2022-11-24T16:48:00.382Z,94507.31
2022-11-24T16:50:26.783Z,94504.00
2022-11-24T16:52:53.214Z,94496.88
2022-11-24T16:55:19.612Z,94498.47
2022-11-24T16:57:46.027Z,94497.41
2022-11-24T17:00:12.427Z,94495.91
2022-11-24T17:02:38.926Z,94497.84
2022-11-24T17:05:05.388Z,94493.63
2022-11-24T17:07:31.873Z,94491.63
2022-11-24T17:09:58.346Z,94490.03
2022-11-24T17:12:24.745Z,94487.41
2022-11-24T17:15:16.516Z,94500.75
2022-11-24T17:17:37.657Z,94497.75
2022-11-24T17:20:04.109Z,94492.16
2022-11-24T17:22:30.553Z,94492.28
2022-11-24T17:24:57.003Z,94492.59
2022-11-24T17:27:23.477Z,94499.81
2022-11-24T17:29:49.921Z,94499.66
2022-11-24T17:32:16.366Z,94496.88
2022-11-24T17:34:42.838Z,94488.16
2022-11-24T17:37:09.274Z,94488.84
2022-11-24T17:39:35.682Z,94492.16
2022-11-24T17:42:02.117Z,94496.59
2022-11-24T17:44:28.517Z,94494.59
2022-11-24T17:46:54.905Z,94491.97
2022-11-24T17:49:21.299Z,94493.63
2022-11-24T17:51:47.724Z,94491.81
2022-11-24T17:57:00.514Z,94485.03
2022-11-24T17:59:26.919Z,94487.94
2022-11-24T18:01:53.358Z,94485.28
2022-11-24T18:04:19.820Z,94482.91
2022-11-24T18:06:46.239Z,94480.06
2022-11-24T18:09:12.642Z,94480.41
2022-11-24T18:11:39.066Z,94476.94
2022-11-24T18:14:05.516Z,94491.38
2022-11-24T18:16:31.997Z,94486.84
2022-11-24T18:19:07.843Z,94490.16
2022-11-24T18:21:35.111Z,94495.63
2022-11-24T18:24:01.526Z,94498.41
2022-11-24T18:26:27.946Z,94499.34
2022-11-24T18:28:54.858Z,94496.00
2022-11-24T18:31:21.353Z,94499.81
2022-11-24T18:33:47.799Z,94499.13
2022-11-24T18:36:14.218Z,94496.91
2022-11-24T18:38:40.698Z,94505.16
2022-11-24T18:41:07.157Z,94506.03
2022-11-24T18:43:33.610Z,94518.00
2022-11-24T18:46:00.144Z,94516.69
2022-11-24T18:48:26.658Z,94512.59
2022-11-24T18:50:53.067Z,94506.44
2022-11-24T18:53:19.458Z,94509.78
2022-11-24T18:55:45.915Z,94506.34
2022-11-24T18:58:12.369Z,94497.69
2022-11-24T19:00:38.775Z,94493.72
2022-11-24T19:03:05.181Z,94487.66
2022-11-24T19:05:31.619Z,94485.13
2022-11-24T19:07:58.089Z,94494.50
2022-11-24T19:10:24.549Z,94488.22
2022-11-24T19:12:50.955Z,94490.69
2022-11-24T19:15:17.368Z,94483.47
2022-11-24T19:17:47.159Z,94488.72
2022-11-24T19:20:13.855Z,94481.53
2022-11-24T19:22:40.271Z,94482.03
2022-11-24T19:25:06.682Z,94484.38
2022-11-24T19:27:33.095Z,94482.41
2022-11-24T19:29:59.530Z,94486.53
2022-11-24T19:32:25.938Z,94481.78
2022-11-24T19:34:52.339Z,94482.31
2022-11-24T19:37:18.739Z,94479.34
2022-11-24T19:39:45.155Z,94476.44
2022-11-24T19:42:11.572Z,94479.72
2022-11-24T19:44:37.990Z,94482.19
2022-11-24T19:47:04.437Z,94475.16
2022-11-24T19:49:30.850Z,94476.81
2022-11-24T19:51:57.233Z,94485.50
2022-11-24T19:54:23.668Z,94487.44
2022-11-24T19:56:50.105Z,94489.25
2022-11-24T19:59:16.499Z,94487.31
2022-11-24T20:01:43.023Z,94489.41
2022-11-24T20:04:09.541Z,94483.50
2022-11-24T20:06:35.935Z,94488.59
2022-11-24T20:09:02.350Z,94485.44
2022-11-24T20:11:28.784Z,94482.19
2022-11-24T20:13:55.363Z,94480.72
2022-11-24T20:16:21.930Z,94480.19
2022-11-24T20:18:48.366Z,94475.75
2022-11-24T20:21:14.776Z,94479.34
2022-11-24T20:23:41.212Z,94480.03
2022-11-24T20:26:07.633Z,94475.63
2022-11-24T20:28:34.075Z,94478.25
2022-11-24T20:31:00.475Z,94481.16
2022-11-24T20:33:26.884Z,94475.25
2022-11-24T20:35:53.277Z,94470.84
2022-11-24T20:38:19.691Z,94472.47
2022-11-24T20:40:46.114Z,94479.91
2022-11-24T20:43:12.556Z,94486.94
2022-11-24T20:45:39.037Z,94484.00
2022-11-24T20:48:05.480Z,94494.22
2022-11-24T20:50:31.921Z,94493.06
2022-11-24T20:52:58.342Z,94493.75
2022-11-24T20:55:24.777Z,94489.13
2022-11-24T20:57:51.229Z,94483.88
2022-11-24T21:00:17.621Z,94490.13
2022-11-24T21:02:44.055Z,94493.75
2022-11-24T21:05:10.484Z,94494.56
2022-11-24T21:07:36.919Z,94496.22
2022-11-24T21:10:03.327Z,94498.66
2022-11-24T21:12:29.707Z,94509.03
2022-11-24T21:14:56.137Z,94502.94
2022-11-24T21:17:22.550Z,94509.03
2022-11-24T21:19:48.968Z,94503.78
2022-11-24T21:22:15.387Z,94502.13
2022-11-24T21:24:41.807Z,94497.84
2022-11-24T21:27:08.288Z,94502.13
2022-11-24T21:29:34.717Z,94507.22
2022-11-24T21:32:01.227Z,94502.81
2022-11-24T21:34:27.674Z,94507.38
2022-11-24T21:36:54.077Z,94510.00
2022-11-24T21:39:20.528Z,94516.22
2022-11-24T21:41:46.978Z,94512.63
2022-11-24T21:44:13.569Z,94513.31
2022-11-24T21:46:45.099Z,94512.84
2022-11-24T21:49:14.402Z,94512.69
2022-11-24T21:51:40.812Z,94519.41
2022-11-24T21:54:07.255Z,94534.34
2022-11-24T21:56:33.682Z,94526.47
2022-11-24T21:59:00.096Z,94521.06
2022-11-24T22:01:26.583Z,94532.78
2022-11-24T22:03:53.019Z,94535.72
2022-11-24T22:06:19.414Z,94527.31
2022-11-24T22:08:45.812Z,94529.63
2022-11-24T22:11:12.188Z,94541.94
2022-11-24T22:13:38.559Z,94547.88
2022-11-24T22:16:04.974Z,94543.81
2022-11-24T22:18:31.378Z,94533.44
2022-11-24T22:20:57.758Z,94538.38
2022-11-24T22:23:24.162Z,94536.56
2022-11-24T22:25:50.551Z,94538.22
2022-11-24T22:28:16.958Z,94538.38
2022-11-24T22:30:43.368Z,94541.19
2022-11-24T22:33:09.738Z,94541.47
2022-11-24T22:35:36.103Z,94547.06
2022-11-24T22:38:02.527Z,94545.69
2022-11-24T22:40:28.931Z,94552.75
2022-11-24T22:42:55.356Z,94550.28
2022-11-24T22:45:21.778Z,94554.03
2022-11-24T22:47:48.166Z,94554.03
2022-11-24T22:50:14.594Z,94555.19
2022-11-24T22:52:40.988Z,94559.75
2022-11-24T22:55:07.422Z,94560.88
2022-11-24T22:57:33.831Z,94561.88
2022-11-24T23:00:00.208Z,94554.16
2022-11-24T23:02:26.622Z,94557.91
2022-11-24T23:04:53.043Z,94544.28
2022-11-24T23:07:19.468Z,94544.47
2022-11-24T23:09:45.909Z,94552.00
2022-11-24T23:12:12.300Z,94551.16
2022-11-24T23:14:38.729Z,94545.59
2022-11-24T23:17:05.158Z,94541.16
2022-11-24T23:19:31.543Z,94552.97
2022-11-24T23:21:57.935Z,94560.69
2022-11-24T23:24:24.342Z,94564.66
2022-11-24T23:26:50.750Z,94563.00
2022-11-24T23:29:17.171Z,94562.31
2022-11-24T23:31:43.603Z,94567.13
2022-11-24T23:34:10.038Z,94578.44
2022-11-24T23:36:36.439Z,94573.88
2022-11-24T23:39:02.849Z,94583.41
2022-11-24T23:41:29.268Z,94580.78
2022-11-24T23:43:55.713Z,94579.13
2022-11-24T23:46:22.164Z,94581.59
2022-11-24T23:48:48.584Z,94571.75
2022-11-24T23:51:15.002Z,94573.59
2022-11-24T23:53:41.501Z,94574.56
2022-11-24T23:56:07.913Z,94574.56
2022-11-24T23:58:34.322Z,94570.13
